Terminal Aerodrome Forecast
Issued by NWS Portland, OR

Home | Current Version | Previous Version | Text Only | Print | Product List | Glossary On
Versions: 1 2 3 4 5 6 7 8 9 10 11 12 13 14 15 16 17 18 19 20 21 22 23 24 25 26 27
656
FTUS46 KPQR 111724
TAFTTD
TAF
KTTD 111724Z 1118/1218 10015G25KT P6SM -SHRA OVC090
     FM120600 09010KT P6SM VCSH SCT050 OVC080
     FM121600 09006KT 4SM -RA BR OVC050=

USA.gov is the U.S. government's official web portal to all federal, state and local government web resources and services.